sensor_id;sensor_type;location;lat;lon;timestamp;temperature;humidity
8103;DHT22;4094;49.948;11.574;2023-03-31T00:01:36;13.90;68.00
8103;DHT22;4094;49.948;11.574;2023-03-31T00:04:09;13.90;68.10
8103;DHT22;4094;49.948;11.574;2023-03-31T00:06:41;13.90;68.10
8103;DHT22;4094;49.948;11.574;2023-03-31T00:09:11;13.90;68.10
8103;DHT22;4094;49.948;11.574;2023-03-31T00:11:41;13.90;68.20
8103;DHT22;4094;49.948;11.574;2023-03-31T00:14:10;13.90;68.00
8103;DHT22;4094;49.948;11.574;2023-03-31T00:16:41;13.90;68.10
8103;DHT22;4094;49.948;11.574;2023-03-31T00:19:11;13.90;68.00
8103;DHT22;4094;49.948;11.574;2023-03-31T00:21:45;13.90;68.10
8103;DHT22;4094;49.948;11.574;2023-03-31T00:24:14;13.90;68.20
8103;DHT22;4094;49.948;11.574;2023-03-31T00:26:44;13.90;68.20
8103;DHT22;4094;49.948;11.574;2023-03-31T00:29:12;13.90;68.40
8103;DHT22;4094;49.948;11.574;2023-03-31T00:31:43;13.90;68.40
8103;DHT22;4094;49.948;11.574;2023-03-31T00:34:13;13.90;68.40
8103;DHT22;4094;49.948;11.574;2023-03-31T00:36:42;13.80;68.40
8103;DHT22;4094;49.948;11.574;2023-03-31T00:39:16;13.80;68.40
8103;DHT22;4094;49.948;11.574;2023-03-31T00:41:45;13.80;68.40
8103;DHT22;4094;49.948;11.574;2023-03-31T00:44:16;13.80;68.40
8103;DHT22;4094;49.948;11.574;2023-03-31T00:46:55;13.80;69.20
8103;DHT22;4094;49.948;11.574;2023-03-31T00:49:28;13.80;68.40
8103;DHT22;4094;49.948;11.574;2023-03-31T00:52:01;13.70;68.30
8103;DHT22;4094;49.948;11.574;2023-03-31T00:54:32;13.80;68.40
8103;DHT22;4094;49.948;11.574;2023-03-31T00:57:03;13.70;68.20
8103;DHT22;4094;49.948;11.574;2023-03-31T00:59:37;13.70;68.30
8103;DHT22;4094;49.948;11.574;2023-03-31T01:02:07;13.70;68.40
8103;DHT22;4094;49.948;11.574;2023-03-31T01:04:41;13.70;68.40
8103;DHT22;4094;49.948;11.574;2023-03-31T01:07:17;13.70;68.40
8103;DHT22;4094;49.948;11.574;2023-03-31T01:09:47;13.60;68.30
8103;DHT22;4094;49.948;11.574;2023-03-31T01:12:17;13.60;68.20
8103;DHT22;4094;49.948;11.574;2023-03-31T01:14:49;13.60;68.20
8103;DHT22;4094;49.948;11.574;2023-03-31T01:17:20;13.60;68.20
8103;DHT22;4094;49.948;11.574;2023-03-31T01:20:01;13.60;68.20
8103;DHT22;4094;49.948;11.574;2023-03-31T01:25:54;13.60;68.30
8103;DHT22;4094;49.948;11.574;2023-03-31T01:28:35;13.60;68.40
8103;DHT22;4094;49.948;11.574;2023-03-31T01:31:36;13.60;68.40
8103;DHT22;4094;49.948;11.574;2023-03-31T01:37:49;13.60;69.40
8103;DHT22;4094;49.948;11.574;2023-03-31T01:40:41;13.70;68.60
8103;DHT22;4094;49.948;11.574;2023-03-31T01:43:20;13.60;68.30
8103;DHT22;4094;49.948;11.574;2023-03-31T01:45:55;13.60;68.50
8103;DHT22;4094;49.948;11.574;2023-03-31T01:48:31;13.70;68.70
8103;DHT22;4094;49.948;11.574;2023-03-31T01:51:08;13.70;68.70
8103;DHT22;4094;49.948;11.574;2023-03-31T01:53:47;13.70;68.60
8103;DHT22;4094;49.948;11.574;2023-03-31T01:56:21;13.70;68.40
8103;DHT22;4094;49.948;11.574;2023-03-31T01:58:55;13.70;68.40
8103;DHT22;4094;49.948;11.574;2023-03-31T02:01:30;13.70;68.40
8103;DHT22;4094;49.948;11.574;2023-03-31T02:04:08;13.70;68.20
8103;DHT22;4094;49.948;11.574;2023-03-31T02:06:41;13.70;68.20
8103;DHT22;4094;49.948;11.574;2023-03-31T02:09:13;13.60;68.10
8103;DHT22;4094;49.948;11.574;2023-03-31T02:11:45;13.60;68.30
8103;DHT22;4094;49.948;11.574;2023-03-31T02:14:18;13.60;68.40
8103;DHT22;4094;49.948;11.574;2023-03-31T02:16:51;13.60;68.40
8103;DHT22;4094;49.948;11.574;2023-03-31T02:19:28;13.60;68.50
8103;DHT22;4094;49.948;11.574;2023-03-31T02:21:58;13.60;68.40
8103;DHT22;4094;49.948;11.574;2023-03-31T02:24:31;13.50;68.40
8103;DHT22;4094;49.948;11.574;2023-03-31T02:27:09;13.60;68.40
8103;DHT22;4094;49.948;11.574;2023-03-31T02:29:39;13.60;68.40
8103;DHT22;4094;49.948;11.574;2023-03-31T02:32:13;13.50;68.40
8103;DHT22;4094;49.948;11.574;2023-03-31T02:34:43;13.60;68.50
8103;DHT22;4094;49.948;11.574;2023-03-31T02:37:12;13.60;68.50
8103;DHT22;4094;49.948;11.574;2023-03-31T02:39:47;13.60;68.60
8103;DHT22;4094;49.948;11.574;2023-03-31T02:42:18;13.60;68.50
8103;DHT22;4094;49.948;11.574;2023-03-31T02:44:49;13.60;68.60
8103;DHT22;4094;49.948;11.574;2023-03-31T02:47:20;13.60;68.50
8103;DHT22;4094;49.948;11.574;2023-03-31T02:49:52;13.50;68.60
8103;DHT22;4094;49.948;11.574;2023-03-31T02:52:42;13.50;68.70
8103;DHT22;4094;49.948;11.574;2023-03-31T02:55:36;13.50;68.70
8103;DHT22;4094;49.948;11.574;2023-03-31T02:58:47;13.50;68.90
8103;DHT22;4094;49.948;11.574;2023-03-31T03:01:30;13.40;68.90
8103;DHT22;4094;49.948;11.574;2023-03-31T03:04:10;13.40;69.00
8103;DHT22;4094;49.948;11.574;2023-03-31T03:06:53;13.40;69.00
8103;DHT22;4094;49.948;11.574;2023-03-31T03:09:34;13.30;69.10
8103;DHT22;4094;49.948;11.574;2023-03-31T03:12:10;13.30;69.20
8103;DHT22;4094;49.948;11.574;2023-03-31T03:14:47;13.30;69.30
8103;DHT22;4094;49.948;11.574;2023-03-31T03:17:22;13.30;69.40
8103;DHT22;4094;49.948;11.574;2023-03-31T03:19:54;13.30;69.30
8103;DHT22;4094;49.948;11.574;2023-03-31T03:22:23;13.30;69.20
8103;DHT22;4094;49.948;11.574;2023-03-31T03:24:52;13.30;69.00
8103;DHT22;4094;49.948;11.574;2023-03-31T03:27:21;13.30;69.00
8103;DHT22;4094;49.948;11.574;2023-03-31T03:29:52;13.30;69.00
8103;DHT22;4094;49.948;11.574;2023-03-31T03:32:21;13.30;69.10
8103;DHT22;4094;49.948;11.574;2023-03-31T03:34:50;13.30;69.10
8103;DHT22;4094;49.948;11.574;2023-03-31T03:37:19;13.30;69.20
8103;DHT22;4094;49.948;11.574;2023-03-31T03:39:47;13.30;69.20
8103;DHT22;4094;49.948;11.574;2023-03-31T03:42:16;13.30;69.10
8103;DHT22;4094;49.948;11.574;2023-03-31T03:44:45;13.30;69.10
8103;DHT22;4094;49.948;11.574;2023-03-31T03:47:16;13.30;69.20
8103;DHT22;4094;49.948;11.574;2023-03-31T03:49:45;13.30;69.20
8103;DHT22;4094;49.948;11.574;2023-03-31T03:52:16;13.30;69.20
8103;DHT22;4094;49.948;11.574;2023-03-31T03:54:45;13.30;69.00
8103;DHT22;4094;49.948;11.574;2023-03-31T03:57:14;13.30;69.00
8103;DHT22;4094;49.948;11.574;2023-03-31T03:59:43;13.30;69.00
8103;DHT22;4094;49.948;11.574;2023-03-31T04:02:12;13.30;69.00
8103;DHT22;4094;49.948;11.574;2023-03-31T04:04:43;13.30;69.10
8103;DHT22;4094;49.948;11.574;2023-03-31T04:07:12;13.30;69.00
8103;DHT22;4094;49.948;11.574;2023-03-31T04:09:41;13.30;69.10
8103;DHT22;4094;49.948;11.574;2023-03-31T04:12:10;13.30;69.00
8103;DHT22;4094;49.948;11.574;2023-03-31T04:14:39;13.30;69.20
8103;DHT22;4094;49.948;11.574;2023-03-31T04:17:08;13.30;69.10
8103;DHT22;4094;49.948;11.574;2023-03-31T04:19:44;13.30;68.90
8103;DHT22;4094;49.948;11.574;2023-03-31T04:22:17;13.30;68.90
8103;DHT22;4094;49.948;11.574;2023-03-31T04:24:47;13.30;68.90
8103;DHT22;4094;49.948;11.574;2023-03-31T04:27:20;13.30;68.90
8103;DHT22;4094;49.948;11.574;2023-03-31T04:29:49;13.20;68.80
8103;DHT22;4094;49.948;11.574;2023-03-31T04:32:21;13.20;68.80
8103;DHT22;4094;49.948;11.574;2023-03-31T04:34:52;13.20;68.80
8103;DHT22;4094;49.948;11.574;2023-03-31T04:37:29;13.20;68.80
8103;DHT22;4094;49.948;11.574;2023-03-31T04:40:01;13.20;68.80
8103;DHT22;4094;49.948;11.574;2023-03-31T04:42:36;13.20;68.90
8103;DHT22;4094;49.948;11.574;2023-03-31T04:45:06;13.20;68.90
8103;DHT22;4094;49.948;11.574;2023-03-31T04:47:35;13.20;68.90
8103;DHT22;4094;49.948;11.574;2023-03-31T04:50:07;13.20;68.90
8103;DHT22;4094;49.948;11.574;2023-03-31T04:52:42;13.20;69.00
8103;DHT22;4094;49.948;11.574;2023-03-31T04:55:11;13.20;68.90
8103;DHT22;4094;49.948;11.574;2023-03-31T04:57:40;13.20;68.90
8103;DHT22;4094;49.948;11.574;2023-03-31T05:00:11;13.20;68.90
8103;DHT22;4094;49.948;11.574;2023-03-31T05:02:40;13.20;69.00
8103;DHT22;4094;49.948;11.574;2023-03-31T05:05:11;13.20;69.00
8103;DHT22;4094;49.948;11.574;2023-03-31T05:07:40;13.20;69.00
8103;DHT22;4094;49.948;11.574;2023-03-31T05:10:09;13.20;69.10
8103;DHT22;4094;49.948;11.574;2023-03-31T05:12:38;13.20;69.40
8103;DHT22;4094;49.948;11.574;2023-03-31T05:15:08;13.20;69.40
8103;DHT22;4094;49.948;11.574;2023-03-31T05:17:37;13.20;69.60
8103;DHT22;4094;49.948;11.574;2023-03-31T05:20:07;13.20;69.90
8103;DHT22;4094;49.948;11.574;2023-03-31T05:22:39;13.20;70.10
8103;DHT22;4094;49.948;11.574;2023-03-31T05:25:11;13.20;70.00
8103;DHT22;4094;49.948;11.574;2023-03-31T05:27:41;13.20;69.80
8103;DHT22;4094;49.948;11.574;2023-03-31T05:30:10;13.20;69.60
8103;DHT22;4094;49.948;11.574;2023-03-31T05:32:39;13.30;69.60
8103;DHT22;4094;49.948;11.574;2023-03-31T05:35:09;13.30;70.20
8103;DHT22;4094;49.948;11.574;2023-03-31T05:37:40;13.20;69.20
8103;DHT22;4094;49.948;11.574;2023-03-31T05:40:09;13.20;69.10
8103;DHT22;4094;49.948;11.574;2023-03-31T05:42:38;13.20;69.10
8103;DHT22;4094;49.948;11.574;2023-03-31T05:45:09;13.20;69.10
8103;DHT22;4094;49.948;11.574;2023-03-31T05:47:37;13.20;69.10
8103;DHT22;4094;49.948;11.574;2023-03-31T05:50:08;13.20;69.10
8103;DHT22;4094;49.948;11.574;2023-03-31T05:52:42;13.20;69.40
8103;DHT22;4094;49.948;11.574;2023-03-31T05:55:12;13.20;70.00
8103;DHT22;4094;49.948;11.574;2023-03-31T05:57:41;13.20;69.30
8103;DHT22;4094;49.948;11.574;2023-03-31T06:00:11;13.20;69.40
8103;DHT22;4094;49.948;11.574;2023-03-31T06:02:40;13.10;69.40
8103;DHT22;4094;49.948;11.574;2023-03-31T06:05:09;13.10;69.40
8103;DHT22;4094;49.948;11.574;2023-03-31T06:07:38;13.10;69.40
8103;DHT22;4094;49.948;11.574;2023-03-31T06:10:09;13.20;69.50
8103;DHT22;4094;49.948;11.574;2023-03-31T06:12:38;13.10;69.50
8103;DHT22;4094;49.948;11.574;2023-03-31T06:15:08;13.20;69.50
8103;DHT22;4094;49.948;11.574;2023-03-31T06:17:37;13.20;69.50
8103;DHT22;4094;49.948;11.574;2023-03-31T06:20:07;13.20;69.70
8103;DHT22;4094;49.948;11.574;2023-03-31T06:22:53;13.20;69.60
8103;DHT22;4094;49.948;11.574;2023-03-31T06:25:23;13.20;69.50
8103;DHT22;4094;49.948;11.574;2023-03-31T06:27:53;13.20;69.40
8103;DHT22;4094;49.948;11.574;2023-03-31T06:30:22;13.20;69.30
8103;DHT22;4094;49.948;11.574;2023-03-31T06:32:51;13.20;69.20
8103;DHT22;4094;49.948;11.574;2023-03-31T06:35:20;13.20;69.10
8103;DHT22;4094;49.948;11.574;2023-03-31T06:37:49;13.20;69.10
8103;DHT22;4094;49.948;11.574;2023-03-31T06:40:19;13.20;69.50
8103;DHT22;4094;49.948;11.574;2023-03-31T06:42:49;13.20;69.40
8103;DHT22;4094;49.948;11.574;2023-03-31T06:45:19;13.20;69.30
8103;DHT22;4094;49.948;11.574;2023-03-31T06:47:48;13.20;69.30
8103;DHT22;4094;49.948;11.574;2023-03-31T06:50:17;13.20;69.40
8103;DHT22;4094;49.948;11.574;2023-03-31T06:52:46;13.20;69.40
8103;DHT22;4094;49.948;11.574;2023-03-31T06:55:19;13.30;69.60
8103;DHT22;4094;49.948;11.574;2023-03-31T06:57:50;13.30;69.60
8103;DHT22;4094;49.948;11.574;2023-03-31T07:00:19;13.30;69.60
8103;DHT22;4094;49.948;11.574;2023-03-31T07:02:50;13.30;69.50
8103;DHT22;4094;49.948;11.574;2023-03-31T07:05:19;13.30;69.40
8103;DHT22;4094;49.948;11.574;2023-03-31T07:07:53;13.30;69.50
8103;DHT22;4094;49.948;11.574;2023-03-31T07:10:23;13.20;69.50
8103;DHT22;4094;49.948;11.574;2023-03-31T07:12:54;13.20;69.60
8103;DHT22;4094;49.948;11.574;2023-03-31T07:15:24;13.20;69.70
8103;DHT22;4094;49.948;11.574;2023-03-31T07:17:55;13.20;69.80
8103;DHT22;4094;49.948;11.574;2023-03-31T07:20:30;13.20;70.00
8103;DHT22;4094;49.948;11.574;2023-03-31T07:23:02;13.20;70.10
8103;DHT22;4094;49.948;11.574;2023-03-31T07:25:32;13.20;70.20
8103;DHT22;4094;49.948;11.574;2023-03-31T07:28:04;13.10;70.30
8103;DHT22;4094;49.948;11.574;2023-03-31T07:30:33;13.10;70.50
8103;DHT22;4094;49.948;11.574;2023-03-31T07:33:02;13.10;70.70
8103;DHT22;4094;49.948;11.574;2023-03-31T07:35:32;13.10;70.80
8103;DHT22;4094;49.948;11.574;2023-03-31T07:38:01;13.10;71.10
8103;DHT22;4094;49.948;11.574;2023-03-31T07:40:30;13.10;71.30
8103;DHT22;4094;49.948;11.574;2023-03-31T07:42:59;13.10;71.30
8103;DHT22;4094;49.948;11.574;2023-03-31T07:45:30;13.10;71.40
8103;DHT22;4094;49.948;11.574;2023-03-31T07:47:59;13.10;71.50
8103;DHT22;4094;49.948;11.574;2023-03-31T07:50:29;13.10;71.80
8103;DHT22;4094;49.948;11.574;2023-03-31T07:53:00;13.10;71.90
8103;DHT22;4094;49.948;11.574;2023-03-31T07:55:29;13.10;72.10
8103;DHT22;4094;49.948;11.574;2023-03-31T07:57:58;13.20;72.30
8103;DHT22;4094;49.948;11.574;2023-03-31T08:00:27;13.10;72.30
8103;DHT22;4094;49.948;11.574;2023-03-31T08:02:58;13.20;72.30
8103;DHT22;4094;49.948;11.574;2023-03-31T08:05:27;13.20;72.30
8103;DHT22;4094;49.948;11.574;2023-03-31T08:07:56;13.30;72.30
8103;DHT22;4094;49.948;11.574;2023-03-31T08:10:26;13.30;72.30
8103;DHT22;4094;49.948;11.574;2023-03-31T08:12:55;13.30;72.50
8103;DHT22;4094;49.948;11.574;2023-03-31T08:15:24;13.30;72.30
8103;DHT22;4094;49.948;11.574;2023-03-31T08:17:54;13.30;72.30
8103;DHT22;4094;49.948;11.574;2023-03-31T08:20:24;13.30;72.30
8103;DHT22;4094;49.948;11.574;2023-03-31T08:22:53;13.30;72.30
8103;DHT22;4094;49.948;11.574;2023-03-31T08:25:22;13.30;72.30
8103;DHT22;4094;49.948;11.574;2023-03-31T08:27:52;13.30;72.40
8103;DHT22;4094;49.948;11.574;2023-03-31T08:30:22;13.30;72.50
8103;DHT22;4094;49.948;11.574;2023-03-31T08:32:51;13.30;72.50
8103;DHT22;4094;49.948;11.574;2023-03-31T08:35:20;13.30;72.60
8103;DHT22;4094;49.948;11.574;2023-03-31T08:37:51;13.30;72.60
8103;DHT22;4094;49.948;11.574;2023-03-31T08:40:23;13.30;72.80
8103;DHT22;4094;49.948;11.574;2023-03-31T08:42:55;13.30;72.90
8103;DHT22;4094;49.948;11.574;2023-03-31T08:45:30;13.30;72.80
8103;DHT22;4094;49.948;11.574;2023-03-31T08:48:02;13.30;72.90
8103;DHT22;4094;49.948;11.574;2023-03-31T08:50:38;13.30;73.00
8103;DHT22;4094;49.948;11.574;2023-03-31T08:53:19;13.30;73.10
8103;DHT22;4094;49.948;11.574;2023-03-31T08:55:51;13.30;73.20
8103;DHT22;4094;49.948;11.574;2023-03-31T08:58:31;13.30;73.20
8103;DHT22;4094;49.948;11.574;2023-03-31T09:01:08;13.30;73.40
8103;DHT22;4094;49.948;11.574;2023-03-31T09:03:48;13.30;73.50
8103;DHT22;4094;49.948;11.574;2023-03-31T09:06:34;13.30;73.60
8103;DHT22;4094;49.948;11.574;2023-03-31T09:09:09;13.30;73.60
8103;DHT22;4094;49.948;11.574;2023-03-31T09:11:44;13.30;73.80
8103;DHT22;4094;49.948;11.574;2023-03-31T09:14:24;13.30;74.10
8103;DHT22;4094;49.948;11.574;2023-03-31T09:17:06;13.30;74.80
8103;DHT22;4094;49.948;11.574;2023-03-31T09:19:44;13.30;74.00
8103;DHT22;4094;49.948;11.574;2023-03-31T09:22:18;13.30;74.10
8103;DHT22;4094;49.948;11.574;2023-03-31T09:24:56;13.30;74.50
8103;DHT22;4094;49.948;11.574;2023-03-31T09:27:27;13.30;74.60
8103;DHT22;4094;49.948;11.574;2023-03-31T09:30:04;13.30;74.50
8103;DHT22;4094;49.948;11.574;2023-03-31T09:32:39;13.30;74.40
8103;DHT22;4094;49.948;11.574;2023-03-31T09:35:15;13.30;74.40
8103;DHT22;4094;49.948;11.574;2023-03-31T09:37:45;13.30;74.40
8103;DHT22;4094;49.948;11.574;2023-03-31T09:40:17;13.30;74.20
8103;DHT22;4094;49.948;11.574;2023-03-31T09:42:52;13.30;74.40
8103;DHT22;4094;49.948;11.574;2023-03-31T09:45:22;13.30;74.40
8103;DHT22;4094;49.948;11.574;2023-03-31T09:47:54;13.40;74.40
8103;DHT22;4094;49.948;11.574;2023-03-31T09:50:24;13.40;74.50
8103;DHT22;4094;49.948;11.574;2023-03-31T09:52:55;13.40;74.50
8103;DHT22;4094;49.948;11.574;2023-03-31T09:55:33;13.30;74.70
8103;DHT22;4094;49.948;11.574;2023-03-31T09:58:11;13.30;74.70
8103;DHT22;4094;49.948;11.574;2023-03-31T10:00:41;13.40;74.80
8103;DHT22;4094;49.948;11.574;2023-03-31T10:03:12;13.40;74.80
8103;DHT22;4094;49.948;11.574;2023-03-31T10:05:48;13.40;75.10
8103;DHT22;4094;49.948;11.574;2023-03-31T10:08:28;13.40;75.20
8103;DHT22;4094;49.948;11.574;2023-03-31T10:11:09;13.50;75.10
8103;DHT22;4094;49.948;11.574;2023-03-31T10:13:47;13.50;75.00
8103;DHT22;4094;49.948;11.574;2023-03-31T10:16:21;13.60;75.00
8103;DHT22;4094;49.948;11.574;2023-03-31T10:18:51;13.60;74.20
8103;DHT22;4094;49.948;11.574;2023-03-31T10:21:23;13.60;73.60
8103;DHT22;4094;49.948;11.574;2023-03-31T10:23:53;13.60;73.60
8103;DHT22;4094;49.948;11.574;2023-03-31T10:26:26;13.60;74.10
8103;DHT22;4094;49.948;11.574;2023-03-31T10:28:56;13.60;73.80
8103;DHT22;4094;49.948;11.574;2023-03-31T10:31:34;13.60;73.80
8103;DHT22;4094;49.948;11.574;2023-03-31T10:34:05;13.70;74.30
8103;DHT22;4094;49.948;11.574;2023-03-31T10:36:35;13.80;74.10
8103;DHT22;4094;49.948;11.574;2023-03-31T10:39:05;13.90;74.20
8103;DHT22;4094;49.948;11.574;2023-03-31T10:41:37;14.00;74.20
8103;DHT22;4094;49.948;11.574;2023-03-31T10:44:32;14.10;73.90
8103;DHT22;4094;49.948;11.574;2023-03-31T10:47:06;14.20;73.50
8103;DHT22;4094;49.948;11.574;2023-03-31T10:49:47;14.30;73.60
8103;DHT22;4094;49.948;11.574;2023-03-31T10:52:19;14.40;73.70
8103;DHT22;4094;49.948;11.574;2023-03-31T10:54:51;14.60;73.40
8103;DHT22;4094;49.948;11.574;2023-03-31T10:57:31;14.60;73.20
8103;DHT22;4094;49.948;11.574;2023-03-31T11:00:13;14.70;72.70
8103;DHT22;4094;49.948;11.574;2023-03-31T11:03:14;14.70;71.30
8103;DHT22;4094;49.948;11.574;2023-03-31T11:05:49;14.70;70.70
8103;DHT22;4094;49.948;11.574;2023-03-31T11:08:35;14.60;70.20
8103;DHT22;4094;49.948;11.574;2023-03-31T11:11:26;14.60;69.80
8103;DHT22;4094;49.948;11.574;2023-03-31T11:14:05;14.50;69.70
8103;DHT22;4094;49.948;11.574;2023-03-31T11:16:40;14.40;69.40
8103;DHT22;4094;49.948;11.574;2023-03-31T11:19:26;14.30;69.60
8103;DHT22;4094;49.948;11.574;2023-03-31T11:22:05;14.20;69.70
8103;DHT22;4094;49.948;11.574;2023-03-31T11:24:51;14.10;69.90
8103;DHT22;4094;49.948;11.574;2023-03-31T11:27:34;14.00;70.00
8103;DHT22;4094;49.948;11.574;2023-03-31T11:30:12;13.90;70.10
8103;DHT22;4094;49.948;11.574;2023-03-31T11:32:56;13.80;70.50
8103;DHT22;4094;49.948;11.574;2023-03-31T11:35:40;13.80;70.40
8103;DHT22;4094;49.948;11.574;2023-03-31T11:38:24;13.70;70.60
8103;DHT22;4094;49.948;11.574;2023-03-31T11:40:59;13.70;70.80
8103;DHT22;4094;49.948;11.574;2023-03-31T11:43:34;13.70;70.70
8103;DHT22;4094;49.948;11.574;2023-03-31T11:46:08;13.70;71.50
8103;DHT22;4094;49.948;11.574;2023-03-31T11:48:43;13.70;71.80
8103;DHT22;4094;49.948;11.574;2023-03-31T11:51:17;13.80;71.60
8103;DHT22;4094;49.948;11.574;2023-03-31T11:53:49;13.90;71.00
8103;DHT22;4094;49.948;11.574;2023-03-31T11:56:20;14.00;70.90
8103;DHT22;4094;49.948;11.574;2023-03-31T11:58:52;14.00;70.50
8103;DHT22;4094;49.948;11.574;2023-03-31T12:01:28;14.10;69.90
8103;DHT22;4094;49.948;11.574;2023-03-31T12:04:02;14.00;69.20
8103;DHT22;4094;49.948;11.574;2023-03-31T12:06:38;14.00;68.90
8103;DHT22;4094;49.948;11.574;2023-03-31T12:09:16;14.00;69.00
8103;DHT22;4094;49.948;11.574;2023-03-31T12:11:56;13.90;69.30
8103;DHT22;4094;49.948;11.574;2023-03-31T12:14:32;13.90;69.20
8103;DHT22;4094;49.948;11.574;2023-03-31T12:17:09;13.80;69.10
8103;DHT22;4094;49.948;11.574;2023-03-31T12:19:46;13.90;69.40
8103;DHT22;4094;49.948;11.574;2023-03-31T12:22:23;13.80;68.50
8103;DHT22;4094;49.948;11.574;2023-03-31T12:24:54;13.80;68.50
8103;DHT22;4094;49.948;11.574;2023-03-31T12:27:25;13.80;68.60
8103;DHT22;4094;49.948;11.574;2023-03-31T12:29:57;13.70;68.80
8103;DHT22;4094;49.948;11.574;2023-03-31T12:32:31;13.70;68.60
8103;DHT22;4094;49.948;11.574;2023-03-31T12:35:05;13.70;68.60
8103;DHT22;4094;49.948;11.574;2023-03-31T12:40:45;13.60;69.40
8103;DHT22;4094;49.948;11.574;2023-03-31T12:46:24;13.50;69.90
8103;DHT22;4094;49.948;11.574;2023-03-31T12:49:20;13.60;70.20
8103;DHT22;4094;49.948;11.574;2023-03-31T12:52:03;13.60;70.20
8103;DHT22;4094;49.948;11.574;2023-03-31T12:57:50;13.70;70.70
8103;DHT22;4094;49.948;11.574;2023-03-31T13:00:24;13.80;70.70
8103;DHT22;4094;49.948;11.574;2023-03-31T13:06:04;14.10;70.60
8103;DHT22;4094;49.948;11.574;2023-03-31T13:08:51;14.30;70.60
8103;DHT22;4094;49.948;11.574;2023-03-31T13:11:22;14.50;69.80
8103;DHT22;4094;49.948;11.574;2023-03-31T13:14:05;14.60;70.00
8103;DHT22;4094;49.948;11.574;2023-03-31T13:16:35;14.80;69.90
8103;DHT22;4094;49.948;11.574;2023-03-31T13:19:04;15.00;69.50
8103;DHT22;4094;49.948;11.574;2023-03-31T13:21:53;15.20;68.20
8103;DHT22;4094;49.948;11.574;2023-03-31T13:24:24;15.40;67.50
8103;DHT22;4094;49.948;11.574;2023-03-31T13:26:55;15.50;68.00
8103;DHT22;4094;49.948;11.574;2023-03-31T13:29:39;15.70;66.70
8103;DHT22;4094;49.948;11.574;2023-03-31T13:32:21;15.70;65.20
8103;DHT22;4094;49.948;11.574;2023-03-31T13:34:58;15.80;64.70
8103;DHT22;4094;49.948;11.574;2023-03-31T13:37:46;15.90;65.00
8103;DHT22;4094;49.948;11.574;2023-03-31T13:40:48;15.90;64.70
8103;DHT22;4094;49.948;11.574;2023-03-31T13:43:52;15.90;64.70
8103;DHT22;4094;49.948;11.574;2023-03-31T13:46:50;15.90;63.80
8103;DHT22;4094;49.948;11.574;2023-03-31T13:49:55;15.80;63.80
8103;DHT22;4094;49.948;11.574;2023-03-31T13:52:38;15.70;63.60
8103;DHT22;4094;49.948;11.574;2023-03-31T13:55:42;15.60;63.20
8103;DHT22;4094;49.948;11.574;2023-03-31T13:58:33;15.50;63.40
8103;DHT22;4094;49.948;11.574;2023-03-31T14:07:08;15.20;64.30
8103;DHT22;4094;49.948;11.574;2023-03-31T14:09:42;15.10;64.00
8103;DHT22;4094;49.948;11.574;2023-03-31T14:12:21;15.00;64.60
8103;DHT22;4094;49.948;11.574;2023-03-31T14:14:52;14.90;64.80
8103;DHT22;4094;49.948;11.574;2023-03-31T14:17:26;14.90;65.50
8103;DHT22;4094;49.948;11.574;2023-03-31T14:20:14;14.90;65.80
8103;DHT22;4094;49.948;11.574;2023-03-31T14:22:55;14.90;65.10
8103;DHT22;4094;49.948;11.574;2023-03-31T14:25:36;15.00;65.50
8103;DHT22;4094;49.948;11.574;2023-03-31T14:28:24;15.00;65.70
8103;DHT22;4094;49.948;11.574;2023-03-31T14:31:06;15.10;65.50
8103;DHT22;4094;49.948;11.574;2023-03-31T14:33:48;15.10;65.00
8103;DHT22;4094;49.948;11.574;2023-03-31T14:36:26;15.20;65.10
8103;DHT22;4094;49.948;11.574;2023-03-31T14:39:01;15.20;64.20
8103;DHT22;4094;49.948;11.574;2023-03-31T14:41:32;15.20;64.70
8103;DHT22;4094;49.948;11.574;2023-03-31T14:44:06;15.20;63.80
8103;DHT22;4094;49.948;11.574;2023-03-31T14:46:37;15.20;64.40
8103;DHT22;4094;49.948;11.574;2023-03-31T14:49:17;15.20;64.60
8103;DHT22;4094;49.948;11.574;2023-03-31T14:51:47;15.30;64.60
8103;DHT22;4094;49.948;11.574;2023-03-31T14:54:17;15.30;64.50
8103;DHT22;4094;49.948;11.574;2023-03-31T14:56:50;15.40;64.40
8103;DHT22;4094;49.948;11.574;2023-03-31T14:59:23;15.40;64.20
8103;DHT22;4094;49.948;11.574;2023-03-31T15:01:56;15.40;63.90
8103;DHT22;4094;49.948;11.574;2023-03-31T15:04:28;15.50;63.20
8103;DHT22;4094;49.948;11.574;2023-03-31T15:07:09;15.50;63.60
8103;DHT22;4094;49.948;11.574;2023-03-31T15:09:47;15.50;63.90
8103;DHT22;4094;49.948;11.574;2023-03-31T15:12:19;15.50;64.10
8103;DHT22;4094;49.948;11.574;2023-03-31T15:14:51;15.60;64.00
8103;DHT22;4094;49.948;11.574;2023-03-31T15:17:25;15.60;63.80
8103;DHT22;4094;49.948;11.574;2023-03-31T15:19:56;15.60;63.80
8103;DHT22;4094;49.948;11.574;2023-03-31T15:22:27;15.60;63.40
8103;DHT22;4094;49.948;11.574;2023-03-31T15:24:57;15.60;63.50
8103;DHT22;4094;49.948;11.574;2023-03-31T15:27:33;15.60;63.60
8103;DHT22;4094;49.948;11.574;2023-03-31T15:30:06;15.60;63.60
8103;DHT22;4094;49.948;11.574;2023-03-31T15:32:37;15.60;63.60
8103;DHT22;4094;49.948;11.574;2023-03-31T15:35:19;15.50;64.50
8103;DHT22;4094;49.948;11.574;2023-03-31T15:37:50;15.60;63.50
8103;DHT22;4094;49.948;11.574;2023-03-31T15:40:21;15.50;63.70
8103;DHT22;4094;49.948;11.574;2023-03-31T15:42:55;15.50;63.90
8103;DHT22;4094;49.948;11.574;2023-03-31T15:45:46;15.60;64.00
8103;DHT22;4094;49.948;11.574;2023-03-31T15:48:20;15.60;64.10
8103;DHT22;4094;49.948;11.574;2023-03-31T15:50:50;15.60;64.10
8103;DHT22;4094;49.948;11.574;2023-03-31T15:53:26;15.70;64.20
8103;DHT22;4094;49.948;11.574;2023-03-31T15:55:57;15.60;64.10
8103;DHT22;4094;49.948;11.574;2023-03-31T15:58:53;15.60;64.00
8103;DHT22;4094;49.948;11.574;2023-03-31T16:01:27;15.60;63.90
8103;DHT22;4094;49.948;11.574;2023-03-31T16:04:00;15.60;64.00
8103;DHT22;4094;49.948;11.574;2023-03-31T16:06:43;15.60;64.20
8103;DHT22;4094;49.948;11.574;2023-03-31T16:09:16;15.60;64.10
8103;DHT22;4094;49.948;11.574;2023-03-31T16:11:49;15.70;64.10
8103;DHT22;4094;49.948;11.574;2023-03-31T16:14:23;15.70;64.20
8103;DHT22;4094;49.948;11.574;2023-03-31T16:16:55;15.70;63.70
8103;DHT22;4094;49.948;11.574;2023-03-31T16:19:27;15.60;63.20
8103;DHT22;4094;49.948;11.574;2023-03-31T16:21:58;15.60;63.30
8103;DHT22;4094;49.948;11.574;2023-03-31T16:24:31;15.60;63.00
8103;DHT22;4094;49.948;11.574;2023-03-31T16:27:02;15.60;63.30
8103;DHT22;4094;49.948;11.574;2023-03-31T16:29:37;15.50;63.10
8103;DHT22;4094;49.948;11.574;2023-03-31T16:32:10;15.50;63.00
8103;DHT22;4094;49.948;11.574;2023-03-31T16:34:54;15.50;62.80
8103;DHT22;4094;49.948;11.574;2023-03-31T16:37:24;15.50;62.90
8103;DHT22;4094;49.948;11.574;2023-03-31T16:39:53;15.50;62.90
8103;DHT22;4094;49.948;11.574;2023-03-31T16:42:23;15.50;62.90
8103;DHT22;4094;49.948;11.574;2023-03-31T16:44:56;15.40;63.10
8103;DHT22;4094;49.948;11.574;2023-03-31T16:47:45;15.40;63.40
8103;DHT22;4094;49.948;11.574;2023-03-31T16:50:14;15.40;63.60
8103;DHT22;4094;49.948;11.574;2023-03-31T16:52:44;15.30;63.70
8103;DHT22;4094;49.948;11.574;2023-03-31T16:55:14;15.30;63.70